sensor_id;sensor_type;location;lat;lon;timestamp;P1;durP1;ratioP1;P2;durP2;ratioP2
19691;SDS011;42748;50.016;19.890;2023-07-29T00:01:04;8.25;;;4.30;;
19691;SDS011;42748;50.016;19.890;2023-07-29T00:03:32;7.25;;;4.65;;
19691;SDS011;42748;50.016;19.890;2023-07-29T00:06:00;7.97;;;4.47;;
19691;SDS011;42748;50.016;19.890;2023-07-29T00:08:27;7.45;;;4.70;;
19691;SDS011;42748;50.016;19.890;2023-07-29T00:10:55;9.88;;;4.57;;
19691;SDS011;42748;50.016;19.890;2023-07-29T00:13:23;7.45;;;4.40;;
19691;SDS011;42748;50.016;19.890;2023-07-29T00:15:52;10.18;;;5.20;;
19691;SDS011;42748;50.016;19.890;2023-07-29T00:18:20;7.57;;;4.47;;
19691;SDS011;42748;50.016;19.890;2023-07-29T00:20:48;8.75;;;4.63;;
19691;SDS011;42748;50.016;19.890;2023-07-29T00:23:17;11.63;;;5.25;;
19691;SDS011;42748;50.016;19.890;2023-07-29T00:25:48;12.18;;;6.07;;
19691;SDS011;42748;50.016;19.890;2023-07-29T00:28:15;12.02;;;5.68;;
19691;SDS011;42748;50.016;19.890;2023-07-29T00:30:47;11.88;;;5.57;;
19691;SDS011;42748;50.016;19.890;2023-07-29T00:33:14;7.85;;;5.03;;
19691;SDS011;42748;50.016;19.890;2023-07-29T00:35:42;10.43;;;5.53;;
19691;SDS011;42748;50.016;19.890;2023-07-29T00:38:09;8.57;;;5.57;;
19691;SDS011;42748;50.016;19.890;2023-07-29T00:40:37;9.95;;;5.80;;
19691;SDS011;42748;50.016;19.890;2023-07-29T00:43:05;9.77;;;5.90;;
19691;SDS011;42748;50.016;19.890;2023-07-29T00:45:34;11.82;;;5.82;;
19691;SDS011;42748;50.016;19.890;2023-07-29T00:48:02;9.93;;;5.70;;
19691;SDS011;42748;50.016;19.890;2023-07-29T00:50:32;13.57;;;6.28;;
19691;SDS011;42748;50.016;19.890;2023-07-29T00:53:00;10.20;;;6.63;;
19691;SDS011;42748;50.016;19.890;2023-07-29T00:55:28;11.98;;;6.55;;
19691;SDS011;42748;50.016;19.890;2023-07-29T00:57:56;10.73;;;6.63;;
19691;SDS011;42748;50.016;19.890;2023-07-29T01:00:25;10.80;;;6.97;;
19691;SDS011;42748;50.016;19.890;2023-07-29T01:02:52;13.32;;;6.78;;
19691;SDS011;42748;50.016;19.890;2023-07-29T01:05:21;13.63;;;6.63;;
19691;SDS011;42748;50.016;19.890;2023-07-29T01:10:46;13.23;;;7.30;;
19691;SDS011;42748;50.016;19.890;2023-07-29T01:13:18;17.70;;;7.32;;
19691;SDS011;42748;50.016;19.890;2023-07-29T01:16:00;12.82;;;7.43;;
19691;SDS011;42748;50.016;19.890;2023-07-29T01:18:30;16.48;;;10.13;;
19691;SDS011;42748;50.016;19.890;2023-07-29T01:20:59;16.83;;;9.65;;
19691;SDS011;42748;50.016;19.890;2023-07-29T01:23:44;14.25;;;9.20;;
19691;SDS011;42748;50.016;19.890;2023-07-29T01:26:12;16.20;;;8.98;;
19691;SDS011;42748;50.016;19.890;2023-07-29T01:28:40;12.60;;;8.25;;
19691;SDS011;42748;50.016;19.890;2023-07-29T01:31:26;15.95;;;7.63;;
19691;SDS011;42748;50.016;19.890;2023-07-29T01:33:59;13.95;;;7.80;;
19691;SDS011;42748;50.016;19.890;2023-07-29T01:36:29;13.38;;;7.63;;
19691;SDS011;42748;50.016;19.890;2023-07-29T01:39:00;13.75;;;8.10;;
19691;SDS011;42748;50.016;19.890;2023-07-29T01:41:30;17.02;;;8.50;;
19691;SDS011;42748;50.016;19.890;2023-07-29T01:43:57;12.70;;;8.23;;
19691;SDS011;42748;50.016;19.890;2023-07-29T01:46:25;11.10;;;7.60;;
19691;SDS011;42748;50.016;19.890;2023-07-29T01:48:53;12.82;;;7.72;;
19691;SDS011;42748;50.016;19.890;2023-07-29T01:51:21;12.75;;;7.88;;
19691;SDS011;42748;50.016;19.890;2023-07-29T01:53:49;11.82;;;7.18;;
19691;SDS011;42748;50.016;19.890;2023-07-29T01:56:17;11.75;;;7.85;;
19691;SDS011;42748;50.016;19.890;2023-07-29T01:58:52;12.60;;;7.15;;
19691;SDS011;42748;50.016;19.890;2023-07-29T02:01:20;10.70;;;6.80;;
19691;SDS011;42748;50.016;19.890;2023-07-29T02:03:48;10.45;;;6.75;;
19691;SDS011;42748;50.016;19.890;2023-07-29T02:06:22;11.68;;;6.93;;
19691;SDS011;42748;50.016;19.890;2023-07-29T02:08:50;10.77;;;6.75;;
19691;SDS011;42748;50.016;19.890;2023-07-29T02:11:18;10.52;;;6.10;;
19691;SDS011;42748;50.016;19.890;2023-07-29T02:13:54;10.50;;;5.93;;
19691;SDS011;42748;50.016;19.890;2023-07-29T02:16:22;10.65;;;6.28;;
19691;SDS011;42748;50.016;19.890;2023-07-29T02:18:50;11.68;;;6.43;;
19691;SDS011;42748;50.016;19.890;2023-07-29T02:21:22;12.63;;;6.55;;
19691;SDS011;42748;50.016;19.890;2023-07-29T02:23:49;10.73;;;6.82;;
19691;SDS011;42748;50.016;19.890;2023-07-29T02:26:17;15.80;;;8.35;;
19691;SDS011;42748;50.016;19.890;2023-07-29T02:28:45;17.35;;;8.35;;
19691;SDS011;42748;50.016;19.890;2023-07-29T02:31:23;12.98;;;7.50;;
19691;SDS011;42748;50.016;19.890;2023-07-29T02:33:51;17.02;;;7.82;;
19691;SDS011;42748;50.016;19.890;2023-07-29T02:36:19;13.65;;;7.65;;
19691;SDS011;42748;50.016;19.890;2023-07-29T02:38:47;13.57;;;7.30;;
19691;SDS011;42748;50.016;19.890;2023-07-29T02:41:15;14.30;;;7.22;;
19691;SDS011;42748;50.016;19.890;2023-07-29T02:43:43;14.88;;;7.43;;
19691;SDS011;42748;50.016;19.890;2023-07-29T02:46:11;14.98;;;8.57;;
19691;SDS011;42748;50.016;19.890;2023-07-29T02:48:38;12.90;;;7.22;;
19691;SDS011;42748;50.016;19.890;2023-07-29T02:51:06;10.45;;;7.30;;
19691;SDS011;42748;50.016;19.890;2023-07-29T02:53:34;11.80;;;7.40;;
19691;SDS011;42748;50.016;19.890;2023-07-29T02:56:03;12.70;;;7.47;;
19691;SDS011;42748;50.016;19.890;2023-07-29T02:58:31;13.27;;;8.32;;
19691;SDS011;42748;50.016;19.890;2023-07-29T03:01:02;14.02;;;8.10;;
19691;SDS011;42748;50.016;19.890;2023-07-29T03:03:31;15.23;;;9.30;;
19691;SDS011;42748;50.016;19.890;2023-07-29T03:06:03;14.27;;;8.05;;
19691;SDS011;42748;50.016;19.890;2023-07-29T03:08:31;12.25;;;8.13;;
19691;SDS011;42748;50.016;19.890;2023-07-29T03:10:59;12.60;;;7.93;;
19691;SDS011;42748;50.016;19.890;2023-07-29T03:13:32;12.32;;;7.65;;
19691;SDS011;42748;50.016;19.890;2023-07-29T03:18:33;15.35;;;8.48;;
19691;SDS011;42748;50.016;19.890;2023-07-29T03:21:01;14.50;;;9.07;;
19691;SDS011;42748;50.016;19.890;2023-07-29T03:23:29;13.93;;;8.80;;
19691;SDS011;42748;50.016;19.890;2023-07-29T03:25:58;13.43;;;8.23;;
19691;SDS011;42748;50.016;19.890;2023-07-29T03:28:26;15.57;;;8.15;;
19691;SDS011;42748;50.016;19.890;2023-07-29T03:30:58;12.27;;;7.90;;
19691;SDS011;42748;50.016;19.890;2023-07-29T03:33:26;15.13;;;7.90;;
19691;SDS011;42748;50.016;19.890;2023-07-29T03:35:54;11.50;;;7.70;;
19691;SDS011;42748;50.016;19.890;2023-07-29T03:38:21;11.23;;;6.65;;
19691;SDS011;42748;50.016;19.890;2023-07-29T03:40:50;10.90;;;7.10;;
19691;SDS011;42748;50.016;19.890;2023-07-29T03:43:18;11.50;;;6.65;;
19691;SDS011;42748;50.016;19.890;2023-07-29T03:45:46;10.88;;;6.75;;
19691;SDS011;42748;50.016;19.890;2023-07-29T03:48:13;11.45;;;6.22;;
19691;SDS011;42748;50.016;19.890;2023-07-29T03:50:41;8.95;;;6.15;;
19691;SDS011;42748;50.016;19.890;2023-07-29T03:53:09;12.57;;;7.22;;
19691;SDS011;42748;50.016;19.890;2023-07-29T03:55:36;11.25;;;6.80;;
19691;SDS011;42748;50.016;19.890;2023-07-29T03:58:04;12.88;;;7.05;;
19691;SDS011;42748;50.016;19.890;2023-07-29T04:00:32;11.25;;;7.10;;
19691;SDS011;42748;50.016;19.890;2023-07-29T04:03:01;11.07;;;7.10;;
19691;SDS011;42748;50.016;19.890;2023-07-29T04:05:29;10.68;;;6.30;;
19691;SDS011;42748;50.016;19.890;2023-07-29T04:07:57;10.25;;;6.65;;
19691;SDS011;42748;50.016;19.890;2023-07-29T04:10:25;10.05;;;6.68;;
19691;SDS011;42748;50.016;19.890;2023-07-29T04:12:52;10.55;;;6.45;;
19691;SDS011;42748;50.016;19.890;2023-07-29T04:15:20;10.02;;;6.57;;
19691;SDS011;42748;50.016;19.890;2023-07-29T04:17:48;11.45;;;7.03;;
19691;SDS011;42748;50.016;19.890;2023-07-29T04:20:16;10.05;;;6.88;;
19691;SDS011;42748;50.016;19.890;2023-07-29T04:22:43;9.68;;;6.45;;
19691;SDS011;42748;50.016;19.890;2023-07-29T04:25:11;9.60;;;6.38;;
19691;SDS011;42748;50.016;19.890;2023-07-29T04:27:40;9.88;;;6.85;;
19691;SDS011;42748;50.016;19.890;2023-07-29T04:30:08;9.80;;;6.10;;
19691;SDS011;42748;50.016;19.890;2023-07-29T04:32:36;10.35;;;6.13;;
19691;SDS011;42748;50.016;19.890;2023-07-29T04:35:06;12.02;;;6.22;;
19691;SDS011;42748;50.016;19.890;2023-07-29T04:37:36;10.45;;;6.13;;
19691;SDS011;42748;50.016;19.890;2023-07-29T04:40:04;9.00;;;5.80;;
19691;SDS011;42748;50.016;19.890;2023-07-29T04:42:32;10.60;;;6.50;;
19691;SDS011;42748;50.016;19.890;2023-07-29T04:45:01;10.13;;;5.80;;
19691;SDS011;42748;50.016;19.890;2023-07-29T04:47:31;8.13;;;5.53;;
19691;SDS011;42748;50.016;19.890;2023-07-29T04:49:59;8.10;;;5.40;;
19691;SDS011;42748;50.016;19.890;2023-07-29T04:52:26;7.63;;;5.47;;
19691;SDS011;42748;50.016;19.890;2023-07-29T04:54:54;8.57;;;4.97;;
19691;SDS011;42748;50.016;19.890;2023-07-29T04:57:22;9.55;;;5.50;;
19691;SDS011;42748;50.016;19.890;2023-07-29T04:59:49;8.07;;;5.50;;
19691;SDS011;42748;50.016;19.890;2023-07-29T05:02:17;9.65;;;6.07;;
19691;SDS011;42748;50.016;19.890;2023-07-29T05:04:45;8.80;;;6.25;;
19691;SDS011;42748;50.016;19.890;2023-07-29T05:07:13;10.27;;;6.32;;
19691;SDS011;42748;50.016;19.890;2023-07-29T05:09:41;9.40;;;6.45;;
19691;SDS011;42748;50.016;19.890;2023-07-29T05:12:08;9.52;;;6.18;;
19691;SDS011;42748;50.016;19.890;2023-07-29T05:14:36;8.45;;;6.00;;
19691;SDS011;42748;50.016;19.890;2023-07-29T05:17:04;7.75;;;5.80;;
19691;SDS011;42748;50.016;19.890;2023-07-29T05:19:32;8.43;;;5.88;;
19691;SDS011;42748;50.016;19.890;2023-07-29T05:21:59;10.40;;;6.95;;
19691;SDS011;42748;50.016;19.890;2023-07-29T05:24:27;7.40;;;5.90;;
19691;SDS011;42748;50.016;19.890;2023-07-29T05:26:55;11.25;;;5.45;;
19691;SDS011;42748;50.016;19.890;2023-07-29T05:29:22;7.90;;;5.60;;
19691;SDS011;42748;50.016;19.890;2023-07-29T05:31:50;8.18;;;5.88;;
19691;SDS011;42748;50.016;19.890;2023-07-29T05:34:18;6.75;;;5.70;;
19691;SDS011;42748;50.016;19.890;2023-07-29T05:36:46;7.68;;;5.38;;
19691;SDS011;42748;50.016;19.890;2023-07-29T05:39:14;5.45;;;4.85;;
19691;SDS011;42748;50.016;19.890;2023-07-29T05:41:41;8.93;;;5.00;;
19691;SDS011;42748;50.016;19.890;2023-07-29T05:44:09;5.35;;;4.40;;
19691;SDS011;42748;50.016;19.890;2023-07-29T05:46:37;6.22;;;4.65;;
19691;SDS011;42748;50.016;19.890;2023-07-29T05:49:07;8.25;;;4.93;;
19691;SDS011;42748;50.016;19.890;2023-07-29T05:51:35;6.13;;;4.50;;
19691;SDS011;42748;50.016;19.890;2023-07-29T05:54:03;5.72;;;4.82;;
19691;SDS011;42748;50.016;19.890;2023-07-29T05:56:31;6.25;;;4.60;;
19691;SDS011;42748;50.016;19.890;2023-07-29T05:58:58;5.63;;;4.82;;
19691;SDS011;42748;50.016;19.890;2023-07-29T06:01:26;5.50;;;4.78;;
19691;SDS011;42748;50.016;19.890;2023-07-29T06:03:54;7.55;;;5.50;;
19691;SDS011;42748;50.016;19.890;2023-07-29T06:06:22;7.85;;;5.20;;
19691;SDS011;42748;50.016;19.890;2023-07-29T06:08:50;6.00;;;5.13;;
19691;SDS011;42748;50.016;19.890;2023-07-29T06:11:17;6.20;;;5.00;;
19691;SDS011;42748;50.016;19.890;2023-07-29T06:13:46;9.20;;;5.30;;
19691;SDS011;42748;50.016;19.890;2023-07-29T06:16:15;6.20;;;5.13;;
19691;SDS011;42748;50.016;19.890;2023-07-29T06:18:44;5.53;;;4.78;;
19691;SDS011;42748;50.016;19.890;2023-07-29T06:21:12;7.47;;;5.10;;
19691;SDS011;42748;50.016;19.890;2023-07-29T06:23:43;7.05;;;5.20;;
19691;SDS011;42748;50.016;19.890;2023-07-29T06:26:11;7.93;;;5.38;;
19691;SDS011;42748;50.016;19.890;2023-07-29T06:28:39;10.68;;;5.53;;
19691;SDS011;42748;50.016;19.890;2023-07-29T06:31:06;6.90;;;5.25;;
19691;SDS011;42748;50.016;19.890;2023-07-29T06:33:34;5.57;;;4.82;;
19691;SDS011;42748;50.016;19.890;2023-07-29T06:36:01;7.40;;;5.30;;
19691;SDS011;42748;50.016;19.890;2023-07-29T06:38:29;7.22;;;4.88;;
19691;SDS011;42748;50.016;19.890;2023-07-29T06:40:56;7.45;;;4.20;;
19691;SDS011;42748;50.016;19.890;2023-07-29T06:43:24;8.85;;;4.50;;
19691;SDS011;42748;50.016;19.890;2023-07-29T06:45:52;5.97;;;4.38;;
19691;SDS011;42748;50.016;19.890;2023-07-29T06:48:19;7.95;;;5.03;;
19691;SDS011;42748;50.016;19.890;2023-07-29T06:50:48;6.28;;;4.30;;
19691;SDS011;42748;50.016;19.890;2023-07-29T06:53:17;4.88;;;3.95;;
19691;SDS011;42748;50.016;19.890;2023-07-29T06:55:44;6.93;;;3.85;;
19691;SDS011;42748;50.016;19.890;2023-07-29T06:58:12;7.95;;;3.67;;
19691;SDS011;42748;50.016;19.890;2023-07-29T07:00:40;5.32;;;3.95;;
19691;SDS011;42748;50.016;19.890;2023-07-29T07:03:08;5.65;;;4.00;;
19691;SDS011;42748;50.016;19.890;2023-07-29T07:05:35;8.70;;;3.97;;
19691;SDS011;42748;50.016;19.890;2023-07-29T07:08:03;4.43;;;3.67;;
19691;SDS011;42748;50.016;19.890;2023-07-29T07:10:31;4.85;;;3.65;;
19691;SDS011;42748;50.016;19.890;2023-07-29T07:13:00;7.55;;;3.50;;
19691;SDS011;42748;50.016;19.890;2023-07-29T07:15:28;4.65;;;3.60;;
19691;SDS011;42748;50.016;19.890;2023-07-29T07:17:55;4.60;;;3.58;;
19691;SDS011;42748;50.016;19.890;2023-07-29T07:20:23;5.38;;;3.60;;
19691;SDS011;42748;50.016;19.890;2023-07-29T07:22:51;4.00;;;3.42;;
19691;SDS011;42748;50.016;19.890;2023-07-29T07:25:18;5.55;;;3.80;;
19691;SDS011;42748;50.016;19.890;2023-07-29T07:27:46;5.85;;;3.88;;
19691;SDS011;42748;50.016;19.890;2023-07-29T07:30:15;8.00;;;3.58;;
19691;SDS011;42748;50.016;19.890;2023-07-29T07:32:42;5.57;;;3.38;;
19691;SDS011;42748;50.016;19.890;2023-07-29T07:35:12;5.93;;;3.55;;
19691;SDS011;42748;50.016;19.890;2023-07-29T07:37:39;4.53;;;3.90;;
19691;SDS011;42748;50.016;19.890;2023-07-29T07:40:07;3.63;;;3.25;;
19691;SDS011;42748;50.016;19.890;2023-07-29T07:42:35;5.38;;;3.50;;
19691;SDS011;42748;50.016;19.890;2023-07-29T07:45:03;4.68;;;3.63;;
19691;SDS011;42748;50.016;19.890;2023-07-29T07:47:31;6.03;;;3.20;;
19691;SDS011;42748;50.016;19.890;2023-07-29T07:49:58;5.45;;;3.50;;
19691;SDS011;42748;50.016;19.890;2023-07-29T07:52:26;3.95;;;3.20;;
19691;SDS011;42748;50.016;19.890;2023-07-29T07:54:55;4.60;;;3.90;;
19691;SDS011;42748;50.016;19.890;2023-07-29T07:57:23;4.95;;;3.60;;
19691;SDS011;42748;50.016;19.890;2023-07-29T07:59:50;5.55;;;3.70;;
19691;SDS011;42748;50.016;19.890;2023-07-29T08:02:19;4.20;;;3.30;;
19691;SDS011;42748;50.016;19.890;2023-07-29T08:04:47;3.88;;;3.40;;
19691;SDS011;42748;50.016;19.890;2023-07-29T08:07:15;4.60;;;3.60;;
19691;SDS011;42748;50.016;19.890;2023-07-29T08:09:42;3.60;;;3.30;;
19691;SDS011;42748;50.016;19.890;2023-07-29T08:12:10;4.65;;;3.65;;
19691;SDS011;42748;50.016;19.890;2023-07-29T08:14:38;4.20;;;3.35;;
19691;SDS011;42748;50.016;19.890;2023-07-29T08:17:05;3.95;;;3.45;;
19691;SDS011;42748;50.016;19.890;2023-07-29T08:19:33;4.65;;;3.33;;
19691;SDS011;42748;50.016;19.890;2023-07-29T08:22:04;4.20;;;3.35;;
19691;SDS011;42748;50.016;19.890;2023-07-29T08:24:32;5.80;;;3.03;;
19691;SDS011;42748;50.016;19.890;2023-07-29T08:27:00;3.85;;;2.90;;
19691;SDS011;42748;50.016;19.890;2023-07-29T08:29:28;5.57;;;3.10;;
19691;SDS011;42748;50.016;19.890;2023-07-29T08:31:56;5.15;;;3.17;;
19691;SDS011;42748;50.016;19.890;2023-07-29T08:34:23;4.35;;;3.10;;
19691;SDS011;42748;50.016;19.890;2023-07-29T08:36:52;3.67;;;3.20;;
19691;SDS011;42748;50.016;19.890;2023-07-29T08:39:19;3.20;;;2.80;;
19691;SDS011;42748;50.016;19.890;2023-07-29T08:41:59;5.13;;;3.78;;
19691;SDS011;42748;50.016;19.890;2023-07-29T08:44:49;4.15;;;3.00;;
19691;SDS011;42748;50.016;19.890;2023-07-29T08:47:17;3.28;;;2.97;;
19691;SDS011;42748;50.016;19.890;2023-07-29T08:49:45;3.20;;;2.90;;
19691;SDS011;42748;50.016;19.890;2023-07-29T08:52:14;3.05;;;2.50;;
19691;SDS011;42748;50.016;19.890;2023-07-29T08:54:41;3.35;;;2.63;;
19691;SDS011;42748;50.016;19.890;2023-07-29T08:57:10;3.67;;;3.05;;
19691;SDS011;42748;50.016;19.890;2023-07-29T08:59:37;2.53;;;2.33;;
19691;SDS011;42748;50.016;19.890;2023-07-29T09:02:06;3.25;;;2.70;;
19691;SDS011;42748;50.016;19.890;2023-07-29T09:04:34;2.78;;;2.45;;
19691;SDS011;42748;50.016;19.890;2023-07-29T09:07:02;3.75;;;2.75;;
19691;SDS011;42748;50.016;19.890;2023-07-29T09:09:34;4.78;;;2.80;;
19691;SDS011;42748;50.016;19.890;2023-07-29T09:12:02;4.03;;;3.38;;
19691;SDS011;42748;50.016;19.890;2023-07-29T09:14:29;4.65;;;2.95;;
19691;SDS011;42748;50.016;19.890;2023-07-29T09:16:57;4.05;;;2.80;;
19691;SDS011;42748;50.016;19.890;2023-07-29T09:19:26;3.08;;;2.60;;
19691;SDS011;42748;50.016;19.890;2023-07-29T09:21:53;4.03;;;2.72;;
19691;SDS011;42748;50.016;19.890;2023-07-29T09:24:21;4.90;;;3.00;;
19691;SDS011;42748;50.016;19.890;2023-07-29T09:26:50;4.88;;;2.67;;
19691;SDS011;42748;50.016;19.890;2023-07-29T09:29:21;4.75;;;2.90;;
19691;SDS011;42748;50.016;19.890;2023-07-29T09:31:49;2.80;;;2.28;;
19691;SDS011;42748;50.016;19.890;2023-07-29T09:34:17;4.78;;;2.50;;
19691;SDS011;42748;50.016;19.890;2023-07-29T09:36:44;2.92;;;2.63;;
19691;SDS011;42748;50.016;19.890;2023-07-29T09:39:12;5.18;;;2.75;;
19691;SDS011;42748;50.016;19.890;2023-07-29T09:41:40;3.88;;;2.50;;
19691;SDS011;42748;50.016;19.890;2023-07-29T09:44:08;5.82;;;2.60;;
19691;SDS011;42748;50.016;19.890;2023-07-29T09:46:37;3.63;;;2.65;;
19691;SDS011;42748;50.016;19.890;2023-07-29T09:49:07;4.90;;;2.80;;
19691;SDS011;42748;50.016;19.890;2023-07-29T09:51:37;3.15;;;2.60;;
19691;SDS011;42748;50.016;19.890;2023-07-29T09:54:06;2.67;;;2.30;;
19691;SDS011;42748;50.016;19.890;2023-07-29T09:56:34;2.85;;;2.30;;
19691;SDS011;42748;50.016;19.890;2023-07-29T09:59:06;3.42;;;2.42;;
19691;SDS011;42748;50.016;19.890;2023-07-29T10:01:34;2.80;;;2.45;;
19691;SDS011;42748;50.016;19.890;2023-07-29T10:04:04;3.63;;;2.60;;
19691;SDS011;42748;50.016;19.890;2023-07-29T10:06:33;3.03;;;2.20;;
19691;SDS011;42748;50.016;19.890;2023-07-29T10:09:02;6.25;;;2.58;;
19691;SDS011;42748;50.016;19.890;2023-07-29T10:11:31;4.10;;;2.60;;
19691;SDS011;42748;50.016;19.890;2023-07-29T10:14:00;6.07;;;2.58;;
19691;SDS011;42748;50.016;19.890;2023-07-29T10:16:36;4.95;;;2.40;;
19691;SDS011;42748;50.016;19.890;2023-07-29T10:19:05;5.85;;;2.50;;
19691;SDS011;42748;50.016;19.890;2023-07-29T10:21:36;2.80;;;2.50;;
19691;SDS011;42748;50.016;19.890;2023-07-29T10:24:06;5.03;;;2.47;;
19691;SDS011;42748;50.016;19.890;2023-07-29T10:26:37;4.10;;;2.88;;
19691;SDS011;42748;50.016;19.890;2023-07-29T10:29:09;3.28;;;2.97;;
19691;SDS011;42748;50.016;19.890;2023-07-29T10:31:43;4.32;;;3.00;;
19691;SDS011;42748;50.016;19.890;2023-07-29T10:34:10;5.18;;;3.50;;
19691;SDS011;42748;50.016;19.890;2023-07-29T10:36:39;3.50;;;3.20;;
19691;SDS011;42748;50.016;19.890;2023-07-29T10:39:08;5.13;;;3.10;;
19691;SDS011;42748;50.016;19.890;2023-07-29T10:47:24;5.47;;;3.08;;
19691;SDS011;42748;50.016;19.890;2023-07-29T10:49:55;4.68;;;3.08;;
19691;SDS011;42748;50.016;19.890;2023-07-29T10:55:03;4.88;;;3.60;;
19691;SDS011;42748;50.016;19.890;2023-07-29T10:57:34;4.97;;;3.38;;
19691;SDS011;42748;50.016;19.890;2023-07-29T11:00:03;4.35;;;3.38;;
19691;SDS011;42748;50.016;19.890;2023-07-29T11:02:35;4.50;;;3.10;;
19691;SDS011;42748;50.016;19.890;2023-07-29T11:05:21;6.15;;;3.10;;
19691;SDS011;42748;50.016;19.890;2023-07-29T11:07:49;4.18;;;3.33;;
19691;SDS011;42748;50.016;19.890;2023-07-29T11:10:17;5.50;;;3.50;;
19691;SDS011;42748;50.016;19.890;2023-07-29T11:15:24;4.30;;;3.33;;
19691;SDS011;42748;50.016;19.890;2023-07-29T11:20:24;4.25;;;3.30;;
19691;SDS011;42748;50.016;19.890;2023-07-29T11:22:55;5.75;;;3.63;;
19691;SDS011;42748;50.016;19.890;2023-07-29T11:25:24;5.30;;;3.38;;
19691;SDS011;42748;50.016;19.890;2023-07-29T11:27:52;4.35;;;3.50;;
19691;SDS011;42748;50.016;19.890;2023-07-29T11:30:20;5.30;;;3.40;;
19691;SDS011;42748;50.016;19.890;2023-07-29T11:32:49;3.63;;;2.83;;
19691;SDS011;42748;50.016;19.890;2023-07-29T11:35:17;5.53;;;3.10;;
19691;SDS011;42748;50.016;19.890;2023-07-29T11:37:46;4.85;;;2.75;;
19691;SDS011;42748;50.016;19.890;2023-07-29T11:40:20;4.10;;;2.80;;
19691;SDS011;42748;50.016;19.890;2023-07-29T11:42:49;5.38;;;2.88;;
19691;SDS011;42748;50.016;19.890;2023-07-29T11:45:17;3.28;;;2.78;;
19691;SDS011;42748;50.016;19.890;2023-07-29T11:47:45;6.03;;;2.60;;
19691;SDS011;42748;50.016;19.890;2023-07-29T11:50:14;3.67;;;2.70;;
19691;SDS011;42748;50.016;19.890;2023-07-29T11:52:43;5.47;;;2.90;;
19691;SDS011;42748;50.016;19.890;2023-07-29T11:55:11;3.53;;;2.97;;
19691;SDS011;42748;50.016;19.890;2023-07-29T11:57:39;3.67;;;3.03;;
19691;SDS011;42748;50.016;19.890;2023-07-29T12:00:08;3.60;;;3.30;;
19691;SDS011;42748;50.016;19.890;2023-07-29T12:02:38;8.25;;;4.10;;
19691;SDS011;42748;50.016;19.890;2023-07-29T12:05:06;6.10;;;3.50;;
19691;SDS011;42748;50.016;19.890;2023-07-29T12:07:35;4.32;;;3.17;;
19691;SDS011;42748;50.016;19.890;2023-07-29T12:10:06;5.65;;;3.10;;
19691;SDS011;42748;50.016;19.890;2023-07-29T12:12:37;3.92;;;3.00;;
19691;SDS011;42748;50.016;19.890;2023-07-29T12:15:05;3.33;;;2.97;;
19691;SDS011;42748;50.016;19.890;2023-07-29T12:17:37;3.97;;;2.97;;
19691;SDS011;42748;50.016;19.890;2023-07-29T12:20:07;6.80;;;3.20;;
19691;SDS011;42748;50.016;19.890;2023-07-29T12:22:35;3.60;;;3.15;;
19691;SDS011;42748;50.016;19.890;2023-07-29T12:25:03;5.97;;;3.20;;
19691;SDS011;42748;50.016;19.890;2023-07-29T12:27:31;4.80;;;2.92;;
19691;SDS011;42748;50.016;19.890;2023-07-29T12:30:00;3.97;;;3.30;;
19691;SDS011;42748;50.016;19.890;2023-07-29T12:32:30;3.72;;;3.42;;
19691;SDS011;42748;50.016;19.890;2023-07-29T12:34:58;4.47;;;3.50;;
19691;SDS011;42748;50.016;19.890;2023-07-29T12:37:32;5.78;;;3.70;;
19691;SDS011;42748;50.016;19.890;2023-07-29T12:40:00;5.13;;;4.47;;
19691;SDS011;42748;50.016;19.890;2023-07-29T12:42:27;8.18;;;6.05;;
19691;SDS011;42748;50.016;19.890;2023-07-29T12:44:55;7.20;;;3.80;;
19691;SDS011;42748;50.016;19.890;2023-07-29T12:47:22;4.20;;;3.78;;
19691;SDS011;42748;50.016;19.890;2023-07-29T12:49:50;4.10;;;3.35;;
19691;SDS011;42748;50.016;19.890;2023-07-29T12:52:18;5.28;;;3.90;;
19691;SDS011;42748;50.016;19.890;2023-07-29T12:54:46;4.95;;;3.75;;
19691;SDS011;42748;50.016;19.890;2023-07-29T12:57:13;4.30;;;3.50;;
19691;SDS011;42748;50.016;19.890;2023-07-29T12:59:41;5.70;;;3.78;;
19691;SDS011;42748;50.016;19.890;2023-07-29T13:02:09;4.30;;;3.80;;
19691;SDS011;42748;50.016;19.890;2023-07-29T13:04:37;4.68;;;3.50;;
19691;SDS011;42748;50.016;19.890;2023-07-29T13:07:04;5.18;;;3.53;;
19691;SDS011;42748;50.016;19.890;2023-07-29T13:09:33;6.13;;;4.03;;
19691;SDS011;42748;50.016;19.890;2023-07-29T13:12:00;4.10;;;3.70;;
19691;SDS011;42748;50.016;19.890;2023-07-29T13:14:28;4.32;;;3.88;;
19691;SDS011;42748;50.016;19.890;2023-07-29T13:16:56;4.60;;;3.53;;
19691;SDS011;42748;50.016;19.890;2023-07-29T13:19:24;5.47;;;3.95;;
19691;SDS011;42748;50.016;19.890;2023-07-29T13:21:52;5.53;;;3.78;;
19691;SDS011;42748;50.016;19.890;2023-07-29T13:24:20;4.95;;;3.70;;
19691;SDS011;42748;50.016;19.890;2023-07-29T13:26:48;4.95;;;3.70;;
19691;SDS011;42748;50.016;19.890;2023-07-29T13:29:16;4.70;;;3.60;;
19691;SDS011;42748;50.016;19.890;2023-07-29T13:31:44;5.28;;;3.50;;
19691;SDS011;42748;50.016;19.890;2023-07-29T13:34:11;4.10;;;3.60;;
19691;SDS011;42748;50.016;19.890;2023-07-29T13:36:40;3.40;;;3.10;;
19691;SDS011;42748;50.016;19.890;2023-07-29T13:39:07;6.13;;;3.85;;
19691;SDS011;42748;50.016;19.890;2023-07-29T13:41:35;6.40;;;3.90;;
19691;SDS011;42748;50.016;19.890;2023-07-29T13:44:04;3.97;;;3.58;;
19691;SDS011;42748;50.016;19.890;2023-07-29T13:46:31;6.18;;;4.13;;
19691;SDS011;42748;50.016;19.890;2023-07-29T13:48:59;4.60;;;3.80;;
19691;SDS011;42748;50.016;19.890;2023-07-29T13:51:26;4.03;;;3.63;;
19691;SDS011;42748;50.016;19.890;2023-07-29T13:53:55;4.95;;;3.63;;
19691;SDS011;42748;50.016;19.890;2023-07-29T13:56:23;4.30;;;3.90;;
19691;SDS011;42748;50.016;19.890;2023-07-29T13:58:54;6.50;;;3.75;;
19691;SDS011;42748;50.016;19.890;2023-07-29T14:01:22;7.82;;;4.05;;
19691;SDS011;42748;50.016;19.890;2023-07-29T14:03:50;4.25;;;3.83;;
19691;SDS011;42748;50.016;19.890;2023-07-29T14:06:18;4.10;;;3.70;;
19691;SDS011;42748;50.016;19.890;2023-07-29T14:09:01;6.25;;;3.88;;
19691;SDS011;42748;50.016;19.890;2023-07-29T14:11:30;5.50;;;4.18;;
19691;SDS011;42748;50.016;19.890;2023-07-29T14:13:58;10.05;;;3.63;;
19691;SDS011;42748;50.016;19.890;2023-07-29T14:16:26;7.65;;;2.83;;
19691;SDS011;42748;50.016;19.890;2023-07-29T14:18:53;6.88;;;3.42;;
19691;SDS011;42748;50.016;19.890;2023-07-29T14:21:21;7.30;;;3.42;;
19691;SDS011;42748;50.016;19.890;2023-07-29T14:23:49;5.82;;;2.80;;
19691;SDS011;42748;50.016;19.890;2023-07-29T14:26:17;3.53;;;2.70;;
19691;SDS011;42748;50.016;19.890;2023-07-29T14:28:45;4.47;;;2.72;;
19691;SDS011;42748;50.016;19.890;2023-07-29T14:31:17;5.88;;;3.28;;
19691;SDS011;42748;50.016;19.890;2023-07-29T14:33:51;5.05;;;3.70;;
19691;SDS011;42748;50.016;19.890;2023-07-29T14:36:22;9.55;;;3.78;;
19691;SDS011;42748;50.016;19.890;2023-07-29T14:38:56;8.75;;;3.83;;
19691;SDS011;42748;50.016;19.890;2023-07-29T14:41:23;6.43;;;3.28;;
19691;SDS011;42748;50.016;19.890;2023-07-29T14:43:51;4.53;;;2.90;;
19691;SDS011;42748;50.016;19.890;2023-07-29T14:46:20;4.95;;;3.38;;
19691;SDS011;42748;50.016;19.890;2023-07-29T14:48:48;5.97;;;2.90;;
19691;SDS011;42748;50.016;19.890;2023-07-29T14:51:19;5.70;;;3.15;;
19691;SDS011;42748;50.016;19.890;2023-07-29T14:53:46;4.05;;;3.17;;
19691;SDS011;42748;50.016;19.890;2023-07-29T14:56:14;5.13;;;3.00;;
19691;SDS011;42748;50.016;19.890;2023-07-29T14:58:45;5.78;;;3.30;;